sensor_id;sensor_type;location;lat;lon;timestamp;P1;durP1;ratioP1;P2;durP2;ratioP2
34765;SDS011;20984;43.508;1.504;2022-09-03T00:08:16;4.60;;;2.42;;
34765;SDS011;20984;43.508;1.504;2022-09-03T00:11:00;4.82;;;2.72;;
34765;SDS011;20984;43.508;1.504;2022-09-03T00:13:33;7.45;;;2.63;;
34765;SDS011;20984;43.508;1.504;2022-09-03T00:16:02;8.27;;;2.92;;
34765;SDS011;20984;43.508;1.504;2022-09-03T00:18:34;6.70;;;2.55;;
34765;SDS011;20984;43.508;1.504;2022-09-03T00:21:53;4.25;;;2.20;;
34765;SDS011;20984;43.508;1.504;2022-09-03T00:24:18;7.53;;;2.40;;
34765;SDS011;20984;43.508;1.504;2022-09-03T00:26:49;4.90;;;2.55;;
34765;SDS011;20984;43.508;1.504;2022-09-03T00:29:19;5.47;;;2.50;;
34765;SDS011;20984;43.508;1.504;2022-09-03T00:32:04;7.35;;;2.83;;
34765;SDS011;20984;43.508;1.504;2022-09-03T00:34:53;11.13;;;2.45;;
34765;SDS011;20984;43.508;1.504;2022-09-03T00:37:27;5.55;;;2.30;;
34765;SDS011;20984;43.508;1.504;2022-09-03T00:39:59;8.02;;;2.95;;
34765;SDS011;20984;43.508;1.504;2022-09-03T00:42:56;4.57;;;2.17;;
34765;SDS011;20984;43.508;1.504;2022-09-03T00:45:35;6.13;;;2.33;;
34765;SDS011;20984;43.508;1.504;2022-09-03T00:48:26;8.82;;;2.60;;
34765;SDS011;20984;43.508;1.504;2022-09-03T00:51:01;4.20;;;2.65;;
34765;SDS011;20984;43.508;1.504;2022-09-03T01:03:03;6.57;;;2.45;;
34765;SDS011;20984;43.508;1.504;2022-09-03T01:10:56;7.32;;;2.50;;
34765;SDS011;20984;43.508;1.504;2022-09-03T01:13:39;5.18;;;1.95;;
34765;SDS011;20984;43.508;1.504;2022-09-03T01:22:13;4.30;;;2.20;;
34765;SDS011;20984;43.508;1.504;2022-09-03T01:27:22;8.05;;;2.38;;
34765;SDS011;20984;43.508;1.504;2022-09-03T01:30:04;5.93;;;2.00;;
34765;SDS011;20984;43.508;1.504;2022-09-03T01:44:09;8.40;;;2.30;;
34765;SDS011;20984;43.508;1.504;2022-09-03T01:46:49;5.63;;;2.13;;
34765;SDS011;20984;43.508;1.504;2022-09-03T01:50:09;7.80;;;2.42;;
34765;SDS011;20984;43.508;1.504;2022-09-03T01:52:28;6.53;;;2.60;;
34765;SDS011;20984;43.508;1.504;2022-09-03T01:58:10;2.35;;;2.10;;
34765;SDS011;20984;43.508;1.504;2022-09-03T02:00:41;4.95;;;2.88;;
34765;SDS011;20984;43.508;1.504;2022-09-03T02:03:12;4.97;;;2.45;;
34765;SDS011;20984;43.508;1.504;2022-09-03T02:05:40;3.87;;;2.60;;
34765;SDS011;20984;43.508;1.504;2022-09-03T02:08:08;9.50;;;3.10;;
34765;SDS011;20984;43.508;1.504;2022-09-03T02:10:41;10.68;;;3.15;;
34765;SDS011;20984;43.508;1.504;2022-09-03T02:13:26;5.47;;;2.83;;
34765;SDS011;20984;43.508;1.504;2022-09-03T02:16:03;4.78;;;2.30;;
34765;SDS011;20984;43.508;1.504;2022-09-03T02:18:51;4.97;;;2.35;;
34765;SDS011;20984;43.508;1.504;2022-09-03T02:21:23;5.88;;;2.85;;
34765;SDS011;20984;43.508;1.504;2022-09-03T02:23:56;8.77;;;3.75;;
34765;SDS011;20984;43.508;1.504;2022-09-03T02:26:25;8.60;;;3.35;;
34765;SDS011;20984;43.508;1.504;2022-09-03T02:28:52;5.30;;;3.10;;
34765;SDS011;20984;43.508;1.504;2022-09-03T02:31:19;9.48;;;3.50;;
34765;SDS011;20984;43.508;1.504;2022-09-03T02:33:46;8.40;;;3.50;;
34765;SDS011;20984;43.508;1.504;2022-09-03T02:36:14;14.18;;;3.72;;
34765;SDS011;20984;43.508;1.504;2022-09-03T02:38:43;6.15;;;3.50;;
34765;SDS011;20984;43.508;1.504;2022-09-03T02:41:09;10.18;;;3.80;;
34765;SDS011;20984;43.508;1.504;2022-09-03T02:46:31;10.15;;;4.45;;
34765;SDS011;20984;43.508;1.504;2022-09-03T02:49:07;15.10;;;6.13;;
34765;SDS011;20984;43.508;1.504;2022-09-03T02:51:34;18.17;;;4.57;;
34765;SDS011;20984;43.508;1.504;2022-09-03T02:54:02;29.67;;;5.50;;
34765;SDS011;20984;43.508;1.504;2022-09-03T02:56:29;26.63;;;4.30;;
34765;SDS011;20984;43.508;1.504;2022-09-03T02:58:55;17.50;;;4.78;;
34765;SDS011;20984;43.508;1.504;2022-09-03T03:01:21;11.73;;;4.45;;
34765;SDS011;20984;43.508;1.504;2022-09-03T03:03:47;8.98;;;3.42;;
34765;SDS011;20984;43.508;1.504;2022-09-03T03:06:13;7.40;;;4.38;;
34765;SDS011;20984;43.508;1.504;2022-09-03T03:08:39;15.70;;;5.75;;
34765;SDS011;20984;43.508;1.504;2022-09-03T03:11:05;11.80;;;4.78;;
34765;SDS011;20984;43.508;1.504;2022-09-03T03:13:31;10.93;;;4.50;;
34765;SDS011;20984;43.508;1.504;2022-09-03T03:15:58;11.73;;;4.32;;
34765;SDS011;20984;43.508;1.504;2022-09-03T03:18:25;15.93;;;5.35;;
34765;SDS011;20984;43.508;1.504;2022-09-03T03:20:52;10.93;;;5.25;;
34765;SDS011;20984;43.508;1.504;2022-09-03T03:23:18;8.05;;;5.30;;
34765;SDS011;20984;43.508;1.504;2022-09-03T03:25:45;18.27;;;6.43;;
34765;SDS011;20984;43.508;1.504;2022-09-03T03:28:11;13.15;;;5.60;;
34765;SDS011;20984;43.508;1.504;2022-09-03T03:30:43;9.73;;;5.20;;
34765;SDS011;20984;43.508;1.504;2022-09-03T03:33:11;10.18;;;5.57;;
34765;SDS011;20984;43.508;1.504;2022-09-03T03:35:37;9.98;;;5.47;;
34765;SDS011;20984;43.508;1.504;2022-09-03T03:38:04;14.20;;;5.78;;
34765;SDS011;20984;43.508;1.504;2022-09-03T03:40:30;11.27;;;5.60;;
34765;SDS011;20984;43.508;1.504;2022-09-03T03:42:56;13.70;;;5.43;;
34765;SDS011;20984;43.508;1.504;2022-09-03T03:45:23;14.80;;;5.70;;
34765;SDS011;20984;43.508;1.504;2022-09-03T03:47:48;10.85;;;5.80;;
34765;SDS011;20984;43.508;1.504;2022-09-03T03:50:14;15.55;;;5.75;;
34765;SDS011;20984;43.508;1.504;2022-09-03T03:52:41;10.00;;;5.50;;
34765;SDS011;20984;43.508;1.504;2022-09-03T03:55:07;11.38;;;5.72;;
34765;SDS011;20984;43.508;1.504;2022-09-03T03:57:33;10.07;;;6.00;;
34765;SDS011;20984;43.508;1.504;2022-09-03T04:00:00;14.82;;;6.00;;
34765;SDS011;20984;43.508;1.504;2022-09-03T04:02:26;11.18;;;5.25;;
34765;SDS011;20984;43.508;1.504;2022-09-03T04:04:52;14.07;;;6.07;;
34765;SDS011;20984;43.508;1.504;2022-09-03T04:07:18;11.63;;;6.00;;
34765;SDS011;20984;43.508;1.504;2022-09-03T04:09:44;15.60;;;6.53;;
34765;SDS011;20984;43.508;1.504;2022-09-03T04:12:11;17.38;;;6.22;;
34765;SDS011;20984;43.508;1.504;2022-09-03T04:14:37;8.20;;;6.18;;
34765;SDS011;20984;43.508;1.504;2022-09-03T04:17:03;15.05;;;5.57;;
34765;SDS011;20984;43.508;1.504;2022-09-03T04:19:28;13.18;;;6.00;;
34765;SDS011;20984;43.508;1.504;2022-09-03T04:21:55;11.05;;;6.13;;
34765;SDS011;20984;43.508;1.504;2022-09-03T04:24:21;9.52;;;5.47;;
34765;SDS011;20984;43.508;1.504;2022-09-03T04:26:47;13.77;;;6.80;;
34765;SDS011;20984;43.508;1.504;2022-09-03T04:29:14;13.15;;;5.95;;
34765;SDS011;20984;43.508;1.504;2022-09-03T04:31:40;14.63;;;6.90;;
34765;SDS011;20984;43.508;1.504;2022-09-03T04:34:29;11.82;;;6.88;;
34765;SDS011;20984;43.508;1.504;2022-09-03T04:36:55;17.00;;;6.70;;
34765;SDS011;20984;43.508;1.504;2022-09-03T04:39:23;10.32;;;6.35;;
34765;SDS011;20984;43.508;1.504;2022-09-03T04:41:49;12.00;;;6.47;;
34765;SDS011;20984;43.508;1.504;2022-09-03T04:44:14;9.30;;;6.88;;
34765;SDS011;20984;43.508;1.504;2022-09-03T04:46:40;10.02;;;6.63;;
34765;SDS011;20984;43.508;1.504;2022-09-03T04:49:06;13.48;;;6.82;;
34765;SDS011;20984;43.508;1.504;2022-09-03T04:51:33;12.23;;;6.40;;
34765;SDS011;20984;43.508;1.504;2022-09-03T04:54:01;11.80;;;6.63;;
34765;SDS011;20984;43.508;1.504;2022-09-03T04:56:28;13.52;;;6.97;;
34765;SDS011;20984;43.508;1.504;2022-09-03T04:58:56;10.93;;;6.65;;
34765;SDS011;20984;43.508;1.504;2022-09-03T05:01:25;13.80;;;6.90;;
34765;SDS011;20984;43.508;1.504;2022-09-03T05:03:52;10.48;;;6.78;;
34765;SDS011;20984;43.508;1.504;2022-09-03T05:06:22;11.60;;;6.97;;
34765;SDS011;20984;43.508;1.504;2022-09-03T05:08:50;10.27;;;6.38;;
34765;SDS011;20984;43.508;1.504;2022-09-03T05:11:17;10.90;;;6.82;;
34765;SDS011;20984;43.508;1.504;2022-09-03T05:13:46;11.57;;;6.60;;
34765;SDS011;20984;43.508;1.504;2022-09-03T05:16:13;16.92;;;7.07;;
34765;SDS011;20984;43.508;1.504;2022-09-03T05:18:39;13.93;;;6.85;;
34765;SDS011;20984;43.508;1.504;2022-09-03T05:21:13;11.63;;;6.38;;
34765;SDS011;20984;43.508;1.504;2022-09-03T05:23:41;8.90;;;5.57;;
34765;SDS011;20984;43.508;1.504;2022-09-03T05:26:09;7.85;;;5.63;;
34765;SDS011;20984;43.508;1.504;2022-09-03T05:28:38;14.13;;;7.82;;
34765;SDS011;20984;43.508;1.504;2022-09-03T05:33:32;12.13;;;6.18;;
34765;SDS011;20984;43.508;1.504;2022-09-03T05:36:00;8.52;;;6.00;;
34765;SDS011;20984;43.508;1.504;2022-09-03T05:38:27;8.32;;;5.68;;
34765;SDS011;20984;43.508;1.504;2022-09-03T05:40:53;9.20;;;5.93;;
34765;SDS011;20984;43.508;1.504;2022-09-03T05:43:21;13.45;;;5.72;;
34765;SDS011;20984;43.508;1.504;2022-09-03T05:45:47;8.50;;;5.75;;
34765;SDS011;20984;43.508;1.504;2022-09-03T05:48:13;9.40;;;5.38;;
34765;SDS011;20984;43.508;1.504;2022-09-03T05:50:39;11.13;;;5.53;;
34765;SDS011;20984;43.508;1.504;2022-09-03T05:53:05;8.13;;;5.90;;
34765;SDS011;20984;43.508;1.504;2022-09-03T05:55:31;7.53;;;5.78;;
34765;SDS011;20984;43.508;1.504;2022-09-03T05:57:58;12.57;;;6.20;;
34765;SDS011;20984;43.508;1.504;2022-09-03T06:00:24;9.23;;;5.40;;
34765;SDS011;20984;43.508;1.504;2022-09-03T06:02:50;14.52;;;7.22;;
34765;SDS011;20984;43.508;1.504;2022-09-03T06:05:17;12.65;;;6.90;;
34765;SDS011;20984;43.508;1.504;2022-09-03T06:07:44;7.47;;;6.13;;
34765;SDS011;20984;43.508;1.504;2022-09-03T06:10:14;6.05;;;4.72;;
34765;SDS011;20984;43.508;1.504;2022-09-03T06:12:41;10.23;;;5.95;;
34765;SDS011;20984;43.508;1.504;2022-09-03T06:15:10;6.53;;;5.50;;
34765;SDS011;20984;43.508;1.504;2022-09-03T06:17:37;7.00;;;5.30;;
34765;SDS011;20984;43.508;1.504;2022-09-03T06:20:03;8.23;;;5.38;;
34765;SDS011;20984;43.508;1.504;2022-09-03T06:22:29;8.20;;;4.38;;
34765;SDS011;20984;43.508;1.504;2022-09-03T06:24:55;7.65;;;4.95;;
34765;SDS011;20984;43.508;1.504;2022-09-03T06:27:21;8.80;;;5.25;;
34765;SDS011;20984;43.508;1.504;2022-09-03T06:29:47;5.95;;;4.65;;
34765;SDS011;20984;43.508;1.504;2022-09-03T06:32:12;11.15;;;6.05;;
34765;SDS011;20984;43.508;1.504;2022-09-03T06:34:38;10.60;;;5.25;;
34765;SDS011;20984;43.508;1.504;2022-09-03T06:37:04;9.98;;;6.40;;
34765;SDS011;20984;43.508;1.504;2022-09-03T06:39:30;16.42;;;8.25;;
34765;SDS011;20984;43.508;1.504;2022-09-03T06:41:56;10.75;;;7.72;;
34765;SDS011;20984;43.508;1.504;2022-09-03T06:44:22;10.45;;;6.95;;
34765;SDS011;20984;43.508;1.504;2022-09-03T06:46:48;13.40;;;7.70;;
34765;SDS011;20984;43.508;1.504;2022-09-03T06:49:17;9.90;;;7.82;;
34765;SDS011;20984;43.508;1.504;2022-09-03T06:51:44;10.70;;;7.70;;
34765;SDS011;20984;43.508;1.504;2022-09-03T06:54:10;10.00;;;7.38;;
34765;SDS011;20984;43.508;1.504;2022-09-03T06:56:37;10.48;;;7.20;;
34765;SDS011;20984;43.508;1.504;2022-09-03T06:59:06;12.77;;;8.60;;
34765;SDS011;20984;43.508;1.504;2022-09-03T07:01:35;18.70;;;8.40;;
34765;SDS011;20984;43.508;1.504;2022-09-03T07:04:05;11.00;;;7.45;;
34765;SDS011;20984;43.508;1.504;2022-09-03T07:06:33;13.75;;;7.50;;
34765;SDS011;20984;43.508;1.504;2022-09-03T07:09:07;13.73;;;7.65;;
34765;SDS011;20984;43.508;1.504;2022-09-03T07:11:35;12.68;;;8.77;;
34765;SDS011;20984;43.508;1.504;2022-09-03T07:14:02;13.75;;;7.68;;
34765;SDS011;20984;43.508;1.504;2022-09-03T07:19:31;15.65;;;8.40;;
34765;SDS011;20984;43.508;1.504;2022-09-03T07:21:57;10.43;;;5.22;;
34765;SDS011;20984;43.508;1.504;2022-09-03T07:24:23;7.80;;;4.82;;
34765;SDS011;20984;43.508;1.504;2022-09-03T07:26:51;8.60;;;5.35;;
34765;SDS011;20984;43.508;1.504;2022-09-03T07:29:19;9.18;;;5.50;;
34765;SDS011;20984;43.508;1.504;2022-09-03T07:31:45;7.72;;;4.95;;
34765;SDS011;20984;43.508;1.504;2022-09-03T07:34:12;9.73;;;5.25;;
34765;SDS011;20984;43.508;1.504;2022-09-03T07:36:44;11.32;;;6.20;;
34765;SDS011;20984;43.508;1.504;2022-09-03T07:39:12;10.90;;;6.50;;
34765;SDS011;20984;43.508;1.504;2022-09-03T07:41:39;11.40;;;6.53;;
34765;SDS011;20984;43.508;1.504;2022-09-03T07:44:10;9.32;;;5.60;;
34765;SDS011;20984;43.508;1.504;2022-09-03T07:46:40;13.80;;;6.40;;
34765;SDS011;20984;43.508;1.504;2022-09-03T07:49:07;8.75;;;5.18;;
34765;SDS011;20984;43.508;1.504;2022-09-03T07:51:34;6.85;;;5.03;;
34765;SDS011;20984;43.508;1.504;2022-09-03T07:54:05;9.13;;;4.93;;
34765;SDS011;20984;43.508;1.504;2022-09-03T07:56:34;7.25;;;4.50;;
34765;SDS011;20984;43.508;1.504;2022-09-03T07:59:01;8.95;;;3.88;;
34765;SDS011;20984;43.508;1.504;2022-09-03T08:01:29;6.05;;;4.00;;
34765;SDS011;20984;43.508;1.504;2022-09-03T08:03:57;6.50;;;4.35;;
34765;SDS011;20984;43.508;1.504;2022-09-03T08:06:24;8.27;;;4.03;;
34765;SDS011;20984;43.508;1.504;2022-09-03T08:08:58;4.53;;;3.20;;
34765;SDS011;20984;43.508;1.504;2022-09-03T08:11:26;6.20;;;3.25;;
34765;SDS011;20984;43.508;1.504;2022-09-03T08:14:02;9.57;;;3.47;;
34765;SDS011;20984;43.508;1.504;2022-09-03T08:16:31;4.55;;;2.72;;
34765;SDS011;20984;43.508;1.504;2022-09-03T08:18:59;4.78;;;2.80;;
34765;SDS011;20984;43.508;1.504;2022-09-03T08:21:26;7.43;;;2.90;;
34765;SDS011;20984;43.508;1.504;2022-09-03T08:23:53;9.45;;;3.72;;
34765;SDS011;20984;43.508;1.504;2022-09-03T08:26:26;5.82;;;3.47;;
34765;SDS011;20984;43.508;1.504;2022-09-03T08:28:59;6.47;;;3.50;;
34765;SDS011;20984;43.508;1.504;2022-09-03T08:31:25;6.03;;;3.70;;
34765;SDS011;20984;43.508;1.504;2022-09-03T08:33:53;9.15;;;3.47;;
34765;SDS011;20984;43.508;1.504;2022-09-03T08:36:22;7.32;;;3.60;;
34765;SDS011;20984;43.508;1.504;2022-09-03T08:38:50;4.57;;;2.63;;
34765;SDS011;20984;43.508;1.504;2022-09-03T08:44:44;8.38;;;2.67;;
34765;SDS011;20984;43.508;1.504;2022-09-03T08:47:23;7.93;;;2.63;;
34765;SDS011;20984;43.508;1.504;2022-09-03T08:58:17;12.75;;;2.80;;
34765;SDS011;20984;43.508;1.504;2022-09-03T09:06:10;6.05;;;2.70;;
34765;SDS011;20984;43.508;1.504;2022-09-03T09:16:18;5.45;;;2.95;;
34765;SDS011;20984;43.508;1.504;2022-09-03T09:19:01;4.63;;;2.80;;
34765;SDS011;20984;43.508;1.504;2022-09-03T09:21:35;5.20;;;2.72;;
34765;SDS011;20984;43.508;1.504;2022-09-03T09:24:12;5.43;;;3.20;;
34765;SDS011;20984;43.508;1.504;2022-09-03T09:26:54;4.60;;;3.28;;
34765;SDS011;20984;43.508;1.504;2022-09-03T09:29:23;9.40;;;4.05;;
34765;SDS011;20984;43.508;1.504;2022-09-03T09:31:55;5.97;;;3.40;;
34765;SDS011;20984;43.508;1.504;2022-09-03T09:34:22;7.68;;;3.47;;
34765;SDS011;20984;43.508;1.504;2022-09-03T09:36:49;4.55;;;3.20;;
34765;SDS011;20984;43.508;1.504;2022-09-03T09:39:20;4.78;;;3.20;;
34765;SDS011;20984;43.508;1.504;2022-09-03T09:41:57;4.82;;;3.63;;
34765;SDS011;20984;43.508;1.504;2022-09-03T09:44:29;5.80;;;2.97;;
34765;SDS011;20984;43.508;1.504;2022-09-03T09:47:05;5.07;;;3.50;;
34765;SDS011;20984;43.508;1.504;2022-09-03T09:49:37;7.00;;;4.32;;
34765;SDS011;20984;43.508;1.504;2022-09-03T09:52:12;4.82;;;2.97;;
34765;SDS011;20984;43.508;1.504;2022-09-03T09:54:40;7.80;;;3.92;;
34765;SDS011;20984;43.508;1.504;2022-09-03T09:57:12;7.07;;;3.83;;
34765;SDS011;20984;43.508;1.504;2022-09-03T09:59:42;7.63;;;4.00;;
34765;SDS011;20984;43.508;1.504;2022-09-03T10:04:35;4.55;;;3.13;;
34765;SDS011;20984;43.508;1.504;2022-09-03T10:07:21;8.60;;;3.97;;
34765;SDS011;20984;43.508;1.504;2022-09-03T10:15:44;9.90;;;4.32;;
34765;SDS011;20984;43.508;1.504;2022-09-03T10:27:19;6.07;;;3.33;;
34765;SDS011;20984;43.508;1.504;2022-09-03T10:29:46;6.43;;;4.13;;
34765;SDS011;20984;43.508;1.504;2022-09-03T10:32:31;5.88;;;3.55;;
34765;SDS011;20984;43.508;1.504;2022-09-03T10:35:26;3.72;;;2.72;;
34765;SDS011;20984;43.508;1.504;2022-09-03T10:38:02;5.13;;;3.85;;
34765;SDS011;20984;43.508;1.504;2022-09-03T10:46:25;5.80;;;3.20;;
34765;SDS011;20984;43.508;1.504;2022-09-03T10:51:41;6.05;;;3.95;;
34765;SDS011;20984;43.508;1.504;2022-09-03T10:57:11;6.30;;;3.15;;
34765;SDS011;20984;43.508;1.504;2022-09-03T11:00:05;5.93;;;3.15;;
34765;SDS011;20984;43.508;1.504;2022-09-03T11:05:30;4.72;;;2.72;;
34765;SDS011;20984;43.508;1.504;2022-09-03T11:10:40;5.15;;;2.97;;
34765;SDS011;20984;43.508;1.504;2022-09-03T11:16:01;7.00;;;3.35;;
34765;SDS011;20984;43.508;1.504;2022-09-03T11:18:39;3.75;;;2.47;;
34765;SDS011;20984;43.508;1.504;2022-09-03T11:21:07;6.53;;;2.85;;
34765;SDS011;20984;43.508;1.504;2022-09-03T11:23:39;4.10;;;2.50;;
34765;SDS011;20984;43.508;1.504;2022-09-03T11:26:08;3.88;;;3.17;;
34765;SDS011;20984;43.508;1.504;2022-09-03T11:31:23;3.67;;;2.95;;
34765;SDS011;20984;43.508;1.504;2022-09-03T11:34:07;6.05;;;2.78;;
34765;SDS011;20984;43.508;1.504;2022-09-03T11:36:40;5.25;;;3.47;;
34765;SDS011;20984;43.508;1.504;2022-09-03T11:39:23;8.50;;;4.13;;
34765;SDS011;20984;43.508;1.504;2022-09-03T11:42:12;7.97;;;3.25;;
34765;SDS011;20984;43.508;1.504;2022-09-03T11:44:59;7.47;;;3.78;;
34765;SDS011;20984;43.508;1.504;2022-09-03T11:47:59;7.80;;;3.38;;
34765;SDS011;20984;43.508;1.504;2022-09-03T11:50:31;5.38;;;3.47;;
34765;SDS011;20984;43.508;1.504;2022-09-03T11:53:09;4.07;;;2.90;;
34765;SDS011;20984;43.508;1.504;2022-09-03T11:55:54;4.07;;;3.53;;
34765;SDS011;20984;43.508;1.504;2022-09-03T11:58:36;4.82;;;3.60;;
34765;SDS011;20984;43.508;1.504;2022-09-03T12:01:15;5.15;;;3.58;;
34765;SDS011;20984;43.508;1.504;2022-09-03T12:09:12;6.28;;;3.03;;
34765;SDS011;20984;43.508;1.504;2022-09-03T12:20:45;5.80;;;2.83;;
34765;SDS011;20984;43.508;1.504;2022-09-03T12:23:29;6.20;;;3.55;;
34765;SDS011;20984;43.508;1.504;2022-09-03T12:26:05;4.35;;;2.72;;
34765;SDS011;20984;43.508;1.504;2022-09-03T12:28:36;6.00;;;3.20;;
34765;SDS011;20984;43.508;1.504;2022-09-03T12:31:07;3.83;;;2.80;;
34765;SDS011;20984;43.508;1.504;2022-09-03T12:33:44;5.60;;;2.78;;
34765;SDS011;20984;43.508;1.504;2022-09-03T12:38:42;6.25;;;3.10;;
34765;SDS011;20984;43.508;1.504;2022-09-03T12:41:22;4.65;;;2.75;;
34765;SDS011;20984;43.508;1.504;2022-09-03T12:43:56;5.40;;;2.58;;
34765;SDS011;20984;43.508;1.504;2022-09-03T12:46:27;6.10;;;2.63;;
34765;SDS011;20984;43.508;1.504;2022-09-03T12:48:59;3.55;;;2.65;;
34765;SDS011;20984;43.508;1.504;2022-09-03T12:51:37;3.83;;;2.50;;
34765;SDS011;20984;43.508;1.504;2022-09-03T12:54:09;5.57;;;2.78;;
34765;SDS011;20984;43.508;1.504;2022-09-03T12:59:33;3.95;;;2.35;;
34765;SDS011;20984;43.508;1.504;2022-09-03T13:02:03;4.88;;;3.10;;
34765;SDS011;20984;43.508;1.504;2022-09-03T13:04:40;5.72;;;2.72;;
34765;SDS011;20984;43.508;1.504;2022-09-03T13:07:11;4.28;;;2.78;;
34765;SDS011;20984;43.508;1.504;2022-09-03T13:09:47;3.92;;;2.63;;
34765;SDS011;20984;43.508;1.504;2022-09-03T13:12:31;4.93;;;2.60;;
34765;SDS011;20984;43.508;1.504;2022-09-03T13:15:04;5.13;;;2.40;;
34765;SDS011;20984;43.508;1.504;2022-09-03T13:20:25;4.68;;;2.47;;
34765;SDS011;20984;43.508;1.504;2022-09-03T13:23:06;5.38;;;2.45;;
34765;SDS011;20984;43.508;1.504;2022-09-03T13:25:49;3.78;;;2.58;;
34765;SDS011;20984;43.508;1.504;2022-09-03T13:31:25;3.40;;;2.65;;
34765;SDS011;20984;43.508;1.504;2022-09-03T13:34:00;4.15;;;2.40;;
34765;SDS011;20984;43.508;1.504;2022-09-03T13:39:38;3.65;;;2.90;;
34765;SDS011;20984;43.508;1.504;2022-09-03T13:42:41;4.45;;;2.58;;
34765;SDS011;20984;43.508;1.504;2022-09-03T13:51:10;2.63;;;2.08;;
34765;SDS011;20984;43.508;1.504;2022-09-03T14:13:53;5.15;;;2.03;;
34765;SDS011;20984;43.508;1.504;2022-09-03T14:16:30;3.75;;;2.30;;
34765;SDS011;20984;43.508;1.504;2022-09-03T14:27:26;3.33;;;2.28;;
34765;SDS011;20984;43.508;1.504;2022-09-03T14:29:58;4.15;;;2.22;;
34765;SDS011;20984;43.508;1.504;2022-09-03T14:32:31;5.28;;;2.25;;
34765;SDS011;20984;43.508;1.504;2022-09-03T14:38:13;3.75;;;2.10;;
34765;SDS011;20984;43.508;1.504;2022-09-03T14:40:53;3.70;;;2.30;;
34765;SDS011;20984;43.508;1.504;2022-09-03T14:58:04;3.72;;;2.25;;
34765;SDS011;20984;43.508;1.504;2022-09-03T15:11:53;3.25;;;2.25;;
34765;SDS011;20984;43.508;1.504;2022-09-03T15:19:35;4.97;;;2.28;;
34765;SDS011;20984;43.508;1.504;2022-09-03T15:28:31;6.07;;;2.58;;
34765;SDS011;20984;43.508;1.504;2022-09-03T15:36:51;4.28;;;1.90;;
34765;SDS011;20984;43.508;1.504;2022-09-03T15:39:21;4.15;;;2.30;;
34765;SDS011;20984;43.508;1.504;2022-09-03T15:44:53;4.68;;;1.88;;
34765;SDS011;20984;43.508;1.504;2022-09-03T15:47:36;3.28;;;1.77;;
34765;SDS011;20984;43.508;1.504;2022-09-03T15:53:26;2.83;;;1.20;;
34765;SDS011;20984;43.508;1.504;2022-09-03T15:56:20;4.10;;;2.08;;
34765;SDS011;20984;43.508;1.504;2022-09-03T16:02:12;4.05;;;1.55;;
34765;SDS011;20984;43.508;1.504;2022-09-03T16:12:38;7.28;;;1.95;;
34765;SDS011;20984;43.508;1.504;2022-09-03T16:15:21;2.65;;;1.65;;
34765;SDS011;20984;43.508;1.504;2022-09-03T16:20:45;3.50;;;2.03;;
34765;SDS011;20984;43.508;1.504;2022-09-03T16:23:55;3.47;;;2.10;;
34765;SDS011;20984;43.508;1.504;2022-09-03T16:26:34;5.03;;;1.75;;
34765;SDS011;20984;43.508;1.504;2022-09-03T16:29:10;6.75;;;2.05;;
34765;SDS011;20984;43.508;1.504;2022-09-03T16:43:12;2.38;;;1.60;;
34765;SDS011;20984;43.508;1.504;2022-09-03T16:46:03;2.88;;;1.95;;
34765;SDS011;20984;43.508;1.504;2022-09-03T16:54:07;5.10;;;1.80;;
34765;SDS011;20984;43.508;1.504;2022-09-03T17:02:31;3.03;;;1.85;;
34765;SDS011;20984;43.508;1.504;2022-09-03T17:32:16;3.58;;;2.05;;
34765;SDS011;20984;43.508;1.504;2022-09-03T17:35:09;6.25;;;2.22;;
34765;SDS011;20984;43.508;1.504;2022-09-03T17:37:53;5.13;;;2.50;;
34765;SDS011;20984;43.508;1.504;2022-09-03T17:43:46;4.15;;;2.45;;
34765;SDS011;20984;43.508;1.504;2022-09-03T17:49:01;6.90;;;2.40;;
34765;SDS011;20984;43.508;1.504;2022-09-03T17:59:51;3.35;;;2.45;;
34765;SDS011;20984;43.508;1.504;2022-09-03T18:05:17;6.47;;;2.90;;
34765;SDS011;20984;43.508;1.504;2022-09-03T18:10:22;6.22;;;2.85;;
34765;SDS011;20984;43.508;1.504;2022-09-03T18:13:10;4.35;;;3.17;;
34765;SDS011;20984;43.508;1.504;2022-09-03T18:16:06;4.53;;;2.55;;
34765;SDS011;20984;43.508;1.504;2022-09-03T18:18:44;6.90;;;3.00;;
34765;SDS011;20984;43.508;1.504;2022-09-03T18:21:18;3.33;;;2.55;;
34765;SDS011;20984;43.508;1.504;2022-09-03T18:27:11;4.43;;;2.60;;
34765;SDS011;20984;43.508;1.504;2022-09-03T18:30:08;4.68;;;2.85;;
34765;SDS011;20984;43.508;1.504;2022-09-03T18:32:54;7.75;;;3.47;;
34765;SDS011;20984;43.508;1.504;2022-09-03T18:35:40;7.18;;;2.85;;
34765;SDS011;20984;43.508;1.504;2022-09-03T18:38:37;4.35;;;2.90;;
34765;SDS011;20984;43.508;1.504;2022-09-03T18:51:41;6.30;;;3.47;;
34765;SDS011;20984;43.508;1.504;2022-09-03T19:00:58;8.48;;;2.83;;
34765;SDS011;20984;43.508;1.504;2022-09-03T19:03:54;6.43;;;3.08;;
34765;SDS011;20984;43.508;1.504;2022-09-03T19:06:55;5.00;;;3.40;;
34765;SDS011;20984;43.508;1.504;2022-09-03T19:09:50;5.70;;;3.53;;
34765;SDS011;20984;43.508;1.504;2022-09-03T19:15:46;5.32;;;2.97;;
34765;SDS011;20984;43.508;1.504;2022-09-03T19:21:58;4.30;;;2.88;;
34765;SDS011;20984;43.508;1.504;2022-09-03T19:25:01;4.85;;;3.00;;
34765;SDS011;20984;43.508;1.504;2022-09-03T19:34:21;4.25;;;3.00;;
34765;SDS011;20984;43.508;1.504;2022-09-03T19:37:47;4.40;;;3.30;;
34765;SDS011;20984;43.508;1.504;2022-09-03T19:46:44;7.90;;;3.78;;
34765;SDS011;20984;43.508;1.504;2022-09-03T19:49:42;6.63;;;3.08;;
34765;SDS011;20984;43.508;1.504;2022-09-03T19:52:52;6.28;;;3.15;;
34765;SDS011;20984;43.508;1.504;2022-09-03T19:55:47;5.53;;;3.35;;
34765;SDS011;20984;43.508;1.504;2022-09-03T19:58:37;4.38;;;3.08;;
34765;SDS011;20984;43.508;1.504;2022-09-03T20:01:32;8.18;;;3.67;;
34765;SDS011;20984;43.508;1.504;2022-09-03T20:04:17;4.65;;;3.38;;
34765;SDS011;20984;43.508;1.504;2022-09-03T20:07:07;8.52;;;3.17;;
34765;SDS011;20984;43.508;1.504;2022-09-03T20:09:53;6.95;;;3.60;;
34765;SDS011;20984;43.508;1.504;2022-09-03T20:12:44;4.05;;;2.70;;
34765;SDS011;20984;43.508;1.504;2022-09-03T20:21:22;5.95;;;3.53;;
34765;SDS011;20984;43.508;1.504;2022-09-03T20:38:09;8.60;;;3.70;;
34765;SDS011;20984;43.508;1.504;2022-09-03T20:41:28;7.03;;;3.28;;
34765;SDS011;20984;43.508;1.504;2022-09-03T20:43:52;9.10;;;3.30;;
34765;SDS011;20984;43.508;1.504;2022-09-03T20:52:12;4.20;;;3.35;;
34765;SDS011;20984;43.508;1.504;2022-09-03T20:54:55;4.30;;;3.42;;
34765;SDS011;20984;43.508;1.504;2022-09-03T21:00:25;7.28;;;3.50;;
34765;SDS011;20984;43.508;1.504;2022-09-03T21:11:10;4.45;;;3.42;;
34765;SDS011;20984;43.508;1.504;2022-09-03T21:19:40;5.10;;;3.45;;
34765;SDS011;20984;43.508;1.504;2022-09-03T21:22:30;5.25;;;3.50;;
34765;SDS011;20984;43.508;1.504;2022-09-03T21:24:59;7.47;;;4.50;;
34765;SDS011;20984;43.508;1.504;2022-09-03T21:30:05;6.47;;;4.50;;
34765;SDS011;20984;43.508;1.504;2022-09-03T21:38:37;7.38;;;4.13;;
34765;SDS011;20984;43.508;1.504;2022-09-03T21:41:35;5.45;;;4.40;;
34765;SDS011;20984;43.508;1.504;2022-09-03T21:43:55;7.82;;;5.07;;
34765;SDS011;20984;43.508;1.504;2022-09-03T21:46:30;5.03;;;4.22;;
34765;SDS011;20984;43.508;1.504;2022-09-03T21:49:05;11.27;;;4.13;;
34765;SDS011;20984;43.508;1.504;2022-09-03T21:54:31;6.10;;;4.32;;
34765;SDS011;20984;43.508;1.504;2022-09-03T21:59:41;11.63;;;4.53;;
34765;SDS011;20984;43.508;1.504;2022-09-03T22:04:45;4.95;;;3.47;;
34765;SDS011;20984;43.508;1.504;2022-09-03T22:07:27;8.70;;;4.28;;
34765;SDS011;20984;43.508;1.504;2022-09-03T22:15:26;7.10;;;3.70;;
34765;SDS011;20984;43.508;1.504;2022-09-03T22:20:34;7.43;;;3.90;;
34765;SDS011;20984;43.508;1.504;2022-09-03T22:29:16;25.38;;;4.65;;
34765;SDS011;20984;43.508;1.504;2022-09-03T22:31:52;6.63;;;4.50;;
34765;SDS011;20984;43.508;1.504;2022-09-03T22:37:02;9.13;;;4.00;;